createdAt,value
2023-05-25T00:01:34.628Z,49
2023-05-25T00:07:33.415Z,18
2023-05-25T00:13:18.027Z,26
2023-05-25T00:19:06.362Z,36
2023-05-25T00:24:47.834Z,45
2023-05-25T00:30:22.946Z,38
2023-05-25T00:35:58.191Z,42
2023-05-25T00:41:34.641Z,30
2023-05-25T00:47:11.408Z,51
2023-05-25T00:52:46.755Z,61
2023-05-25T00:58:23.116Z,24
2023-05-25T01:03:59.088Z,24
2023-05-25T01:09:39.686Z,30
2023-05-25T01:15:17.156Z,50
2023-05-25T01:20:55.374Z,36
2023-05-25T01:26:41.953Z,34
2023-05-25T01:32:28.663Z,28
2023-05-25T01:38:22.697Z,34
2023-05-25T01:43:58.586Z,18
2023-05-25T01:49:53.403Z,34
2023-05-25T01:55:29.830Z,34
2023-05-25T02:01:05.489Z,36
2023-05-25T02:06:41.658Z,44
2023-05-25T02:12:20.849Z,44
2023-05-25T02:17:57.058Z,36
2023-05-25T02:23:32.548Z,30
2023-05-25T02:29:22.787Z,28
2023-05-25T02:34:58.952Z,48
2023-05-25T02:40:37.758Z,58
2023-05-25T02:46:51.884Z,28
2023-05-25T02:52:41.074Z,42
2023-05-25T02:58:19.348Z,36
2023-05-25T03:04:16.183Z,40
2023-05-25T03:10:18.954Z,46
2023-05-25T03:15:55.058Z,38
2023-05-25T03:21:57.171Z,30
2023-05-25T03:27:35.006Z,42
2023-05-25T03:33:10.691Z,28
2023-05-25T03:38:46.745Z,32
2023-05-25T03:44:44.253Z,47
2023-05-25T03:50:28.096Z,44
2023-05-25T03:56:06.485Z,40
2023-05-25T04:01:44.984Z,36
2023-05-25T04:07:27.430Z,40
2023-05-25T04:13:37.838Z,43
2023-05-25T04:19:13.410Z,36
2023-05-25T04:25:29.491Z,48
2023-05-25T04:31:06.136Z,40
2023-05-25T04:36:51.883Z,30
2023-05-25T04:42:27.590Z,16
2023-05-25T04:48:06.978Z,36
2023-05-25T04:53:42.966Z,50
2023-05-25T04:59:18.741Z,38
2023-05-25T05:04:57.311Z,34
2023-05-25T05:10:33.703Z,46
2023-05-25T05:16:10.078Z,46
2023-05-25T05:21:45.883Z,20
2023-05-25T05:27:21.779Z,30
2023-05-25T05:32:59.014Z,56
2023-05-25T05:39:07.058Z,34
2023-05-25T05:44:50.100Z,42
2023-05-25T05:50:28.949Z,48
2023-05-25T05:56:05.191Z,28
2023-05-25T06:01:42.654Z,30
2023-05-25T06:07:21.197Z,46
2023-05-25T06:13:00.572Z,30
2023-05-25T06:18:36.442Z,22
2023-05-25T06:24:13.196Z,50
2023-05-25T06:29:49.851Z,48
2023-05-25T06:35:25.397Z,34
2023-05-25T06:41:00.777Z,40
2023-05-25T06:46:37.238Z,24
2023-05-25T06:52:18.012Z,34
2023-05-25T06:58:02.245Z,24
2023-05-25T07:03:54.185Z,44
2023-05-25T07:09:30.556Z,36
2023-05-25T07:15:07.009Z,34
2023-05-25T07:20:45.066Z,26
2023-05-25T07:26:20.636Z,16
2023-05-25T07:31:57.194Z,18
2023-05-25T07:37:32.939Z,24
2023-05-25T07:43:09.370Z,30
2023-05-25T07:48:44.786Z,46
2023-05-25T07:54:20.955Z,26
2023-05-25T08:00:01.139Z,24
2023-05-25T08:05:36.717Z,44
2023-05-25T08:11:19.467Z,26
2023-05-25T08:16:59.040Z,18
2023-05-25T08:23:15.300Z,26
2023-05-25T08:29:44.678Z,39
2023-05-25T08:35:28.970Z,32
2023-05-25T08:41:06.513Z,33
2023-05-25T08:46:43.004Z,38
2023-05-25T08:52:19.333Z,24
2023-05-25T08:58:06.841Z,26
2023-05-25T09:03:43.255Z,20
2023-05-25T09:09:20.628Z,30
2023-05-25T09:15:00.164Z,28
2023-05-25T09:20:42.357Z,20
2023-05-25T09:26:23.354Z,29
2023-05-25T09:31:59.513Z,20
2023-05-25T09:37:37.071Z,30
2023-05-25T09:44:16.821Z,12
2023-05-25T09:50:21.484Z,18
2023-05-25T09:56:12.997Z,16
2023-05-25T10:02:07.981Z,12
2023-05-25T10:07:43.562Z,16
2023-05-25T10:13:19.672Z,24
2023-05-25T10:18:55.715Z,30
2023-05-25T10:24:31.362Z,12
2023-05-25T10:30:08.144Z,27
2023-05-25T10:36:12.505Z,14
2023-05-25T10:41:50.146Z,26
2023-05-25T10:47:26.924Z,14
2023-05-25T10:53:04.463Z,12
2023-05-25T10:58:40.121Z,12
2023-05-25T11:04:33.801Z,12
2023-05-25T11:10:09.657Z,18
2023-05-25T11:15:55.099Z,16
2023-05-25T11:21:30.707Z,10
2023-05-25T11:27:05.618Z,10
2023-05-25T11:32:41.611Z,12
2023-05-25T11:38:26.320Z,12
2023-05-25T11:44:01.919Z,6
2023-05-25T11:49:41.832Z,10
2023-05-25T11:55:21.008Z,10
2023-05-25T12:00:57.587Z,14
2023-05-25T12:06:32.906Z,6
2023-05-25T12:12:09.912Z,8
2023-05-25T12:17:50.224Z,16
2023-05-25T12:23:36.472Z,8
2023-05-25T12:29:34.273Z,10
2023-05-25T12:35:18.308Z,6
2023-05-25T12:40:53.689Z,16
2023-05-25T12:46:29.707Z,4
2023-05-25T12:52:06.061Z,4
2023-05-25T12:57:42.024Z,12
2023-05-25T13:03:18.141Z,8
2023-05-25T13:08:54.295Z,8
2023-05-25T13:14:29.831Z,8
2023-05-25T13:20:06.213Z,10
2023-05-25T13:25:42.545Z,4
2023-05-25T13:31:21.713Z,4
2023-05-25T13:37:06.799Z,8
2023-05-25T13:42:43.259Z,8
2023-05-25T13:48:21.647Z,2
2023-05-25T13:54:01.660Z,9
2023-05-25T13:59:46.070Z,14
2023-05-25T14:05:21.340Z,10
2023-05-25T14:10:57.150Z,8
2023-05-25T14:16:33.835Z,8
2023-05-25T14:22:16.245Z,8
2023-05-25T14:28:12.517Z,9
2023-05-25T14:33:49.005Z,11
2023-05-25T14:39:25.467Z,8
2023-05-25T14:45:00.877Z,6
2023-05-25T14:50:36.620Z,2
2023-05-25T14:56:12.707Z,8
2023-05-25T15:02:09.423Z,16
2023-05-25T15:07:44.275Z,6
2023-05-25T15:13:42.328Z,12
2023-05-25T15:19:19.154Z,8
2023-05-25T15:24:54.461Z,12
2023-05-25T15:30:38.248Z,12
2023-05-25T15:36:16.927Z,26
2023-05-25T15:41:53.444Z,14
2023-05-25T15:47:28.804Z,14
2023-05-25T15:53:05.172Z,10
2023-05-25T15:58:40.799Z,24
2023-05-25T16:04:16.820Z,18
2023-05-25T16:10:02.849Z,4
2023-05-25T16:15:38.376Z,14
2023-05-25T16:21:13.162Z,8
2023-05-25T16:26:48.742Z,8
2023-05-25T16:32:24.787Z,24
2023-05-25T16:38:03.861Z,16
2023-05-25T16:43:42.197Z,8
2023-05-25T16:49:18.595Z,20
2023-05-25T16:55:00.176Z,14
2023-05-25T17:00:40.825Z,12
2023-05-25T17:06:19.397Z,16
2023-05-25T17:11:57.712Z,20
2023-05-25T17:17:34.660Z,24
2023-05-25T17:23:10.463Z,12
2023-05-25T17:28:47.571Z,14
2023-05-25T17:34:23.503Z,16
2023-05-25T17:39:58.544Z,14
2023-05-25T17:45:35.722Z,24
2023-05-25T17:51:12.693Z,20
2023-05-25T17:56:56.484Z,20
2023-05-25T18:02:39.632Z,16
2023-05-25T18:08:43.522Z,32
2023-05-25T18:14:22.065Z,20
2023-05-25T18:20:01.988Z,26
2023-05-25T18:25:38.325Z,16
2023-05-25T18:31:14.076Z,16
2023-05-25T18:37:04.004Z,30
2023-05-25T18:42:40.730Z,8
2023-05-25T18:48:20.134Z,14
2023-05-25T18:53:55.868Z,8
2023-05-25T18:59:31.915Z,38
2023-05-25T19:05:08.083Z,28
2023-05-25T19:10:47.121Z,16
2023-05-25T19:16:23.595Z,18
2023-05-25T19:22:02.488Z,44
2023-05-25T19:27:39.002Z,30
2023-05-25T19:33:15.337Z,22
2023-05-25T19:38:52.267Z,30
2023-05-25T19:44:27.300Z,18
2023-05-25T19:50:03.218Z,12
2023-05-25T19:55:38.986Z,30
2023-05-25T20:01:16.029Z,46
2023-05-25T20:06:52.882Z,28
2023-05-25T20:12:28.623Z,16
2023-05-25T20:18:06.092Z,32
2023-05-25T20:23:41.652Z,14
2023-05-25T20:29:16.888Z,16
2023-05-25T20:34:53.072Z,12
